Time;durP1;ratioP1;P1;durP2;ratioP2;P2;SDS_P1;SDS_P2;PMS_P1;PMS_P2;Temp;Humidity;BMP_temperature;BMP_pressure;BME280_temperature;BME280_humidity;BME280_pressure;Samples;Min_cycle;Max_cycle;Signal;HPM_P1;HPM_P2
2020/12/11 00:01:00;;;;;;;37.13;19.05;;;0.20;94.90;;;;;;5035000;28;20025;-90
2020/12/11 00:03:25;;;;;;;36.08;18.88;;;0.30;94.90;;;;;;5024091;28;20124;-91
2020/12/11 00:05:51;;;;;;;34.28;18.90;;;0.30;94.90;;;;;;5022503;28;20367;-92
2020/12/11 00:08:16;;;;;;;34.70;18.67;;;0.40;94.90;;;;;;5039366;28;20025;-91
2020/12/11 00:10:42;;;;;;;33.85;17.80;;;0.30;94.80;;;;;;5054145;28;20024;-91
2020/12/11 00:13:07;;;;;;;38.75;22.00;;;0.30;94.80;;;;;;5024345;28;20029;-93
2020/12/11 00:15:33;;;;;;;32.08;18.23;;;0.40;94.80;;;;;;5028139;28;20026;-91
2020/12/11 00:17:58;;;;;;;34.25;17.83;;;0.40;94.80;;;;;;5033914;28;20036;-92
2020/12/11 00:20:24;;;;;;;32.90;18.15;;;0.40;94.80;;;;;;5034072;28;20388;-91
2020/12/11 00:22:49;;;;;;;33.78;19.05;;;0.50;94.80;;;;;;5033525;28;20029;-91
2020/12/11 00:25:15;;;;;;;36.03;19.25;;;0.50;94.70;;;;;;5032852;28;20034;-91
2020/12/11 00:27:40;;;;;;;33.33;18.58;;;0.50;94.70;;;;;;5029838;28;20033;-90
2020/12/11 00:30:06;;;;;;;34.35;19.05;;;0.50;94.70;;;;;;5033964;28;20096;-91
2020/12/11 00:32:35;;;;;;;33.45;18.83;;;0.50;94.70;;;;;;5022616;28;20041;-91
2020/12/11 00:35:02;;;;;;;36.97;19.40;;;0.50;94.70;;;;;;5027593;28;20026;-91
2020/12/11 00:37:28;;;;;;;36.13;19.05;;;0.50;94.70;;;;;;5016009;28;20057;-91
2020/12/11 00:39:53;;;;;;;38.35;19.48;;;0.50;94.70;;;;;;5014423;28;20148;-91
2020/12/11 00:42:20;;;;;;;32.35;17.58;;;0.50;94.70;;;;;;5031393;28;20099;-91
2020/12/11 00:44:47;;;;;;;31.48;19.52;;;0.50;94.70;;;;;;5022853;28;532758;-91
2020/12/11 00:47:12;;;;;;;33.97;18.25;;;0.40;94.70;;;;;;5037750;28;20474;-91
2020/12/11 00:49:38;;;;;;;33.80;18.42;;;0.40;94.70;;;;;;5034244;28;20025;-92
2020/12/11 00:52:03;;;;;;;32.53;18.88;;;0.50;94.70;;;;;;5053071;28;20037;-90
2020/12/11 00:54:29;;;;;;;36.83;19.92;;;0.50;94.70;;;;;;5024706;28;20053;-91
2020/12/11 00:56:54;;;;;;;33.15;17.52;;;0.50;94.70;;;;;;5018659;28;20315;-91
2020/12/11 00:59:20;;;;;;;34.72;19.38;;;0.50;94.70;;;;;;5032783;28;20028;-92
2020/12/11 01:01:45;;;;;;;36.03;18.58;;;0.50;94.60;;;;;;5031169;28;20528;-92
2020/12/11 01:04:11;;;;;;;35.03;19.17;;;0.50;94.60;;;;;;5033768;28;20044;-91
2020/12/11 01:06:37;;;;;;;35.55;18.73;;;0.50;94.60;;;;;;5034176;28;20029;-92
2020/12/11 01:09:04;;;;;;;37.28;19.20;;;0.50;94.50;;;;;;5028287;28;20026;-91
2020/12/11 01:11:29;;;;;;;35.70;18.55;;;0.50;94.50;;;;;;5022954;28;20029;-92
2020/12/11 01:13:55;;;;;;;34.85;19.13;;;0.40;94.50;;;;;;5024821;28;20037;-91
2020/12/11 01:16:20;;;;;;;38.30;19.55;;;0.40;94.50;;;;;;5026264;28;20034;-92
2020/12/11 01:18:46;;;;;;;35.63;19.58;;;0.40;94.50;;;;;;5033609;28;20025;-91
2020/12/11 01:21:12;;;;;;;35.80;19.33;;;0.40;94.50;;;;;;5033263;28;20030;-91
2020/12/11 01:23:37;;;;;;;38.05;20.65;;;0.40;94.50;;;;;;5033353;28;20135;-90
2020/12/11 01:26:06;;;;;;;34.88;19.00;;;0.40;94.60;;;;;;5033983;28;20022;-91
2020/12/11 01:28:32;;;;;;;33.75;18.00;;;0.40;94.50;;;;;;5032160;28;20025;-91
2020/12/11 01:30:57;;;;;;;38.53;20.50;;;0.30;94.50;;;;;;5033194;28;20022;-92
2020/12/11 01:33:23;;;;;;;36.92;20.10;;;0.40;94.50;;;;;;5033868;28;20033;-92
2020/12/11 01:35:48;;;;;;;34.28;20.08;;;0.40;94.50;;;;;;5033433;28;20424;-92
2020/12/11 01:38:14;;;;;;;35.90;18.90;;;0.40;94.60;;;;;;5030345;28;20028;-92
2020/12/11 01:40:39;;;;;;;32.70;18.02;;;0.40;94.50;;;;;;5029057;28;20474;-91
2020/12/11 01:43:05;;;;;;;36.53;20.20;;;0.40;94.50;;;;;;5021310;28;20091;-91
2020/12/11 01:45:30;;;;;;;36.30;20.52;;;0.40;94.50;;;;;;5013621;28;20034;-91
2020/12/11 01:47:58;;;;;;;37.13;19.17;;;0.40;94.50;;;;;;5027550;28;20021;-91
2020/12/11 01:50:23;;;;;;;36.38;19.38;;;0.40;94.40;;;;;;5033000;28;20504;-91
2020/12/11 01:52:51;;;;;;;36.78;19.50;;;0.40;94.40;;;;;;5043272;28;20030;-91
2020/12/11 01:55:17;;;;;;;36.55;19.13;;;0.40;94.40;;;;;;5018700;28;20022;-92
2020/12/11 01:58:03;;;;;;;35.08;20.30;;;0.40;94.40;;;;;;5033492;28;20056;-91
2020/12/11 02:00:29;;;;;;;33.83;19.80;;;0.40;94.40;;;;;;5029584;28;20022;-92
2020/12/11 02:03:05;;;;;;;34.15;18.50;;;0.40;94.40;;;;;;5018412;28;20018;-91
2020/12/11 02:05:30;;;;;;;40.08;21.70;;;0.40;94.30;;;;;;5026556;28;20025;-91
2020/12/11 02:07:57;;;;;;;35.42;19.35;;;0.40;94.30;;;;;;5019040;28;20545;-91
2020/12/11 02:10:22;;;;;;;33.17;17.33;;;0.40;94.40;;;;;;5032346;28;20048;-91
2020/12/11 02:12:48;;;;;;;31.20;17.05;;;0.30;94.30;;;;;;5017276;28;20482;-90
2020/12/11 02:15:13;;;;;;;37.17;17.95;;;0.30;94.40;;;;;;5029025;28;20053;-91
2020/12/11 02:17:39;;;;;;;37.47;19.55;;;0.30;94.40;;;;;;5036573;28;20037;-91
2020/12/11 02:20:05;;;;;;;32.60;18.40;;;0.30;94.40;;;;;;5028238;28;20410;-91
2020/12/11 02:22:30;;;;;;;39.47;20.55;;;0.30;94.40;;;;;;5033918;28;20036;-92
2020/12/11 02:24:56;;;;;;;36.53;20.42;;;0.30;94.40;;;;;;5031265;28;20389;-92
2020/12/11 02:27:21;;;;;;;39.45;20.75;;;0.30;94.40;;;;;;5027824;28;20124;-92
2020/12/11 02:29:47;;;;;;;27.90;14.30;;;0.30;94.40;;;;;;5024778;28;20032;-91
2020/12/11 02:32:14;;;;;;;37.08;19.02;;;0.30;94.30;;;;;;5030863;28;20044;-91
2020/12/11 02:34:41;;;;;;;31.88;17.75;;;0.20;94.30;;;;;;5029844;28;20017;-91
2020/12/11 02:37:07;;;;;;;36.38;18.83;;;0.30;94.30;;;;;;5031728;28;20068;-91
2020/12/11 02:39:33;;;;;;;33.65;18.20;;;0.30;94.40;;;;;;5032470;28;20029;-91
2020/12/11 02:41:58;;;;;;;33.28;19.27;;;0.20;94.30;;;;;;5016173;28;20487;-91
2020/12/11 02:44:24;;;;;;;33.17;17.95;;;0.20;94.40;;;;;;5032002;28;20045;-91
2020/12/11 02:46:50;;;;;;;34.05;18.27;;;0.20;94.40;;;;;;5032023;28;20071;-92
2020/12/11 02:49:15;;;;;;;35.10;19.08;;;0.20;94.40;;;;;;5023227;28;20498;-92
2020/12/11 02:51:41;;;;;;;33.67;17.45;;;0.20;94.40;;;;;;5025310;28;20486;-91
2020/12/11 02:54:07;;;;;;;35.75;18.63;;;0.20;94.40;;;;;;5032578;28;20075;-91
2020/12/11 02:56:33;;;;;;;35.63;19.73;;;0.10;94.40;;;;;;5032317;28;20122;-92
2020/12/11 02:59:02;;;;;;;33.58;19.63;;;0.10;94.40;;;;;;5024677;28;20029;-93
2020/12/11 03:01:28;;;;;;;35.03;18.38;;;0.10;94.40;;;;;;5027356;28;20037;-92
2020/12/11 03:03:58;;;;;;;36.00;18.40;;;0.10;94.40;;;;;;5019297;28;20390;-93
2020/12/11 03:06:27;;;;;;;33.28;19.35;;;0.10;94.40;;;;;;5028816;28;20038;-93
2020/12/11 03:08:53;;;;;;;38.50;20.15;;;0.10;94.40;;;;;;5029434;28;20363;-93
2020/12/11 03:11:19;;;;;;;35.05;18.27;;;0.10;94.40;;;;;;5030093;28;20038;-93
2020/12/11 03:13:45;;;;;;;37.28;20.05;;;0.10;94.40;;;;;;5032164;28;20378;-92
2020/12/11 03:16:11;;;;;;;32.90;17.65;;;0.10;94.40;;;;;;5031564;28;20056;-92
2020/12/11 03:18:37;;;;;;;37.28;20.10;;;0.10;94.40;;;;;;5032443;28;20030;-93
2020/12/11 03:21:02;;;;;;;34.58;19.33;;;0.00;94.40;;;;;;5030296;28;20029;-92
2020/12/11 03:23:28;;;;;;;35.78;19.38;;;0.10;94.50;;;;;;5032057;28;20025;-93
2020/12/11 03:25:53;;;;;;;35.35;19.50;;;0.00;94.70;;;;;;5016743;28;20045;-92
2020/12/11 03:28:19;;;;;;;34.00;19.90;;;0.00;94.40;;;;;;5020745;28;20072;-92
2020/12/11 03:30:44;;;;;;;36.53;18.38;;;0.00;94.30;;;;;;5031642;28;20022;-93
2020/12/11 03:33:09;;;;;;;32.33;17.70;;;-0.10;94.40;;;;;;5027369;28;20029;-93
2020/12/11 03:35:36;;;;;;;39.75;20.23;;;0.00;94.40;;;;;;5012245;28;20037;-92
2020/12/11 03:38:03;;;;;;;40.72;21.58;;;0.00;94.50;;;;;;5030428;28;20044;-93
2020/12/11 03:40:28;;;;;;;33.00;19.10;;;0.00;94.50;;;;;;5017042;28;20018;-93
2020/12/11 03:42:54;;;;;;;34.03;17.48;;;0.00;94.40;;;;;;5029409;28;20029;-92
2020/12/11 03:45:19;;;;;;;33.83;18.65;;;0.00;94.40;;;;;;5035049;28;20478;-93
2020/12/11 03:47:45;;;;;;;33.17;18.08;;;0.00;94.40;;;;;;5035530;28;20029;-92
2020/12/11 03:50:10;;;;;;;35.25;19.38;;;0.00;94.40;;;;;;5036308;28;20478;-92
2020/12/11 03:52:36;;;;;;;35.15;20.08;;;0.00;94.40;;;;;;5035117;28;20033;-92
2020/12/11 03:55:01;;;;;;;33.72;18.50;;;0.00;94.40;;;;;;5035218;28;20375;-92
2020/12/11 03:57:27;;;;;;;37.08;21.20;;;0.00;94.30;;;;;;5034557;28;20037;-93
2020/12/11 03:59:52;;;;;;;33.60;18.58;;;0.00;94.40;;;;;;5033938;28;20121;-92
2020/12/11 04:02:18;;;;;;;31.10;17.50;;;0.00;94.40;;;;;;5030028;28;20026;-93
2020/12/11 04:04:43;;;;;;;34.00;18.25;;;0.00;94.40;;;;;;5026679;28;20033;-91
2020/12/11 04:07:10;;;;;;;34.00;18.23;;;0.00;94.40;;;;;;5031635;28;20021;-92
2020/12/11 04:09:35;;;;;;;33.10;18.48;;;0.00;94.70;;;;;;5036258;28;20021;-91
2020/12/11 04:12:01;;;;;;;35.88;18.73;;;0.10;94.40;;;;;;5034593;28;20079;-93
2020/12/11 04:14:26;;;;;;;33.35;17.50;;;0.00;94.40;;;;;;5025911;28;20025;-92
2020/12/11 04:16:52;;;;;;;35.15;18.92;;;0.10;94.50;;;;;;5034323;28;20033;-93
2020/12/11 04:19:17;;;;;;;36.42;19.45;;;0.10;94.50;;;;;;5030202;28;20022;-92
2020/12/11 04:21:50;;;;;;;34.30;18.00;;;0.10;94.50;;;;;;5044345;28;20504;-92
2020/12/11 04:24:17;;;;;;;36.22;19.83;;;0.20;94.50;;;;;;5035232;28;20026;-92
2020/12/11 04:26:43;;;;;;;37.42;19.92;;;0.10;94.50;;;;;;5016199;28;20418;-91
2020/12/11 04:29:09;;;;;;;36.60;19.48;;;0.20;94.50;;;;;;5029216;28;20028;-93
2020/12/11 04:31:34;;;;;;;33.85;20.05;;;0.20;94.40;;;;;;5026874;28;20474;-92
2020/12/11 04:34:00;;;;;;;35.55;18.83;;;0.30;94.40;;;;;;5033275;28;20112;-92
2020/12/11 04:36:25;;;;;;;33.97;18.20;;;0.30;94.40;;;;;;5034685;28;20436;-91
2020/12/11 04:38:51;;;;;;;32.95;18.40;;;0.20;94.30;;;;;;5035510;28;20034;-92
2020/12/11 04:41:19;;;;;;;31.10;17.27;;;0.30;94.30;;;;;;5020560;28;20482;-93
2020/12/11 04:43:47;;;;;;;38.70;20.85;;;0.20;94.30;;;;;;5034926;28;20513;-92
2020/12/11 04:46:13;;;;;;;35.70;18.90;;;0.20;94.30;;;;;;5027608;28;20033;-92
2020/12/11 04:48:39;;;;;;;34.92;19.35;;;0.20;94.30;;;;;;5034688;28;20026;-93
2020/12/11 04:51:06;;;;;;;38.30;20.63;;;0.20;94.30;;;;;;5033618;28;20082;-92
2020/12/11 04:53:35;;;;;;;32.67;19.42;;;0.20;94.30;;;;;;5023507;28;20053;-92
2020/12/11 04:56:02;;;;;;;35.42;19.45;;;0.20;94.40;;;;;;5025903;28;20041;-92
2020/12/11 04:58:30;;;;;;;39.60;21.42;;;0.20;94.40;;;;;;5034365;28;20057;-92
2020/12/11 05:01:02;;;;;;;40.45;21.98;;;0.30;94.40;;;;;;5027182;28;20022;-92
2020/12/11 05:03:33;;;;;;;37.67;20.83;;;0.30;94.40;;;;;;5031195;28;20088;-92
2020/12/11 05:05:59;;;;;;;38.03;20.10;;;0.30;94.40;;;;;;5027389;28;20482;-92
2020/12/11 05:08:25;;;;;;;39.65;21.27;;;0.30;94.50;;;;;;5041358;28;20056;-92
2020/12/11 05:10:51;;;;;;;38.63;22.08;;;0.30;94.60;;;;;;5029758;28;20061;-91
2020/12/11 05:13:25;;;;;;;37.75;20.08;;;0.40;94.60;;;;;;5024280;28;20053;-92
2020/12/11 05:16:12;;;;;;;35.45;20.05;;;0.50;94.60;;;;;;5033653;28;20112;-93
2020/12/11 05:18:39;;;;;;;38.47;21.13;;;0.60;94.50;;;;;;5026081;28;20071;-93
2020/12/11 05:21:14;;;;;;;40.17;22.35;;;0.70;94.40;;;;;;5033477;28;20032;-91
2020/12/11 05:24:04;;;;;;;40.92;22.65;;;0.80;94.40;;;;;;5034454;28;20098;-92
2020/12/11 05:26:34;;;;;;;38.75;21.30;;;0.90;94.30;;;;;;5033775;28;20128;-92
2020/12/11 05:29:01;;;;;;;41.13;21.15;;;0.90;94.30;;;;;;5032421;28;20062;-92
2020/12/11 05:31:27;;;;;;;35.00;20.30;;;1.00;94.20;;;;;;5026098;28;20030;-92
2020/12/11 05:34:22;;;;;;;37.95;21.63;;;1.00;94.20;;;;;;5033829;28;20021;-92
2020/12/11 05:36:51;;;;;;;34.95;19.90;;;1.00;94.10;;;;;;5024875;28;20049;-92
2020/12/11 05:39:37;;;;;;;34.65;20.05;;;1.10;94.20;;;;;;5041682;28;20091;-92
2020/12/11 05:42:10;;;;;;;36.28;20.08;;;1.10;94.10;;;;;;5039833;28;20114;-92
2020/12/11 05:44:36;;;;;;;35.38;20.77;;;1.10;94.10;;;;;;5013428;28;20042;-92
2020/12/11 05:47:22;;;;;;;38.00;21.30;;;1.10;94.00;;;;;;5021355;28;20041;-92
2020/12/11 05:49:48;;;;;;;38.10;21.45;;;1.10;94.00;;;;;;5018837;28;20030;-91
2020/12/11 05:52:16;;;;;;;37.25;21.42;;;1.10;94.00;;;;;;5032705;28;20025;-92
2020/12/11 05:54:53;;;;;;;37.17;21.05;;;1.10;93.90;;;;;;5036613;28;20083;-93
2020/12/11 05:57:20;;;;;;;37.20;20.10;;;1.10;93.90;;;;;;5020646;28;20038;-92
2020/12/11 05:59:46;;;;;;;34.63;20.38;;;1.20;93.90;;;;;;5032491;28;20021;-93
2020/12/11 06:02:16;;;;;;;35.70;19.95;;;1.10;93.90;;;;;;5031704;28;20075;-91
2020/12/11 06:04:44;;;;;;;33.78;19.15;;;1.20;93.80;;;;;;5032237;28;20033;-91
2020/12/11 06:07:11;;;;;;;33.30;19.52;;;1.30;93.80;;;;;;5023215;28;20038;-92
2020/12/11 06:09:38;;;;;;;36.00;19.98;;;1.30;93.80;;;;;;5031938;28;20025;-93
2020/12/11 06:12:06;;;;;;;35.28;19.73;;;1.30;93.70;;;;;;5019382;28;20032;-92
2020/12/11 06:14:45;;;;;;;33.97;19.98;;;1.30;93.60;;;;;;5017266;28;20030;-91
2020/12/11 06:17:13;;;;;;;31.80;17.85;;;1.30;93.60;;;;;;5014340;28;20525;-92
2020/12/11 06:19:41;;;;;;;33.33;17.60;;;1.30;93.60;;;;;;5032477;28;20083;-92
2020/12/11 06:22:07;;;;;;;30.08;18.05;;;1.30;93.50;;;;;;5033090;28;20041;-91
2020/12/11 06:24:34;;;;;;;34.47;19.00;;;1.30;93.50;;;;;;5031248;28;20060;-91
2020/12/11 06:27:04;;;;;;;32.17;18.77;;;1.20;93.40;;;;;;5038298;28;20053;-91
2020/12/11 06:29:40;;;;;;;34.83;19.60;;;1.20;93.50;;;;;;5031511;28;20022;-91
2020/12/11 06:32:09;;;;;;;35.75;19.60;;;1.20;93.50;;;;;;5034050;28;20086;-92
2020/12/11 06:34:36;;;;;;;33.53;19.63;;;1.10;93.50;;;;;;5032536;28;20025;-91
2020/12/11 06:37:02;;;;;;;31.13;19.17;;;1.10;93.50;;;;;;5029295;28;20050;-91
2020/12/11 06:39:47;;;;;;;32.33;18.67;;;1.10;93.50;;;;;;5031763;28;20482;-93
2020/12/11 06:42:35;;;;;;;35.85;19.38;;;1.00;93.50;;;;;;5029239;28;20033;-91
2020/12/11 06:45:21;;;;;;;32.72;17.75;;;1.00;93.60;;;;;;5031097;28;20042;-92
2020/12/11 06:47:57;;;;;;;33.15;18.42;;;1.10;93.70;;;;;;5030596;28;20022;-91
2020/12/11 06:50:28;;;;;;;33.08;18.73;;;1.10;93.60;;;;;;5035424;28;20247;-91
2020/12/11 06:52:54;;;;;;;32.42;19.02;;;1.20;93.70;;;;;;5021788;28;20028;-92
2020/12/11 06:55:20;;;;;;;31.95;16.75;;;1.20;93.60;;;;;;5021895;28;20030;-91
2020/12/11 06:57:48;;;;;;;34.10;19.92;;;1.30;93.60;;;;;;5026960;28;20040;-91
2020/12/11 07:00:29;;;;;;;29.80;18.05;;;1.30;93.60;;;;;;5023973;28;20026;-91
2020/12/11 07:03:14;;;;;;;35.50;17.65;;;1.40;93.60;;;;;;5028709;28;20036;-92
2020/12/11 07:05:40;;;;;;;29.88;17.00;;;1.40;93.50;;;;;;5030438;28;20104;-91
2020/12/11 07:08:16;;;;;;;32.28;18.85;;;1.40;93.50;;;;;;5027306;28;20026;-92
2020/12/11 07:10:43;;;;;;;31.30;18.30;;;1.40;93.50;;;;;;5020958;28;20022;-92
2020/12/11 07:13:10;;;;;;;31.63;18.20;;;1.40;93.50;;;;;;5031518;28;20064;-92
2020/12/11 07:15:37;;;;;;;34.35;18.95;;;1.50;93.50;;;;;;5026813;28;20385;-92
2020/12/11 07:18:16;;;;;;;30.52;17.45;;;1.40;93.40;;;;;;5036673;28;20037;-92
2020/12/11 07:20:53;;;;;;;28.20;16.65;;;1.50;93.40;;;;;;5027154;28;20026;-91
2020/12/11 07:23:19;;;;;;;31.23;18.02;;;1.50;93.40;;;;;;5032917;28;20044;-91
2020/12/11 07:25:46;;;;;;;30.17;17.08;;;1.50;93.40;;;;;;5028227;28;20021;-91
2020/12/11 07:28:12;;;;;;;33.95;18.30;;;1.50;93.30;;;;;;5032493;28;20065;-91
2020/12/11 07:30:38;;;;;;;32.75;17.55;;;1.50;93.30;;;;;;5034346;28;20053;-90
2020/12/11 07:33:04;;;;;;;27.15;16.50;;;1.60;93.30;;;;;;5033074;28;20022;-90
2020/12/11 07:35:29;;;;;;;30.00;16.95;;;1.60;93.30;;;;;;5029786;28;21017;-90
2020/12/11 07:37:56;;;;;;;31.45;17.45;;;1.60;93.20;;;;;;5032795;28;20091;-90
2020/12/11 07:40:23;;;;;;;27.63;17.10;;;1.60;93.20;;;;;;5022459;28;20119;-91
2020/12/11 07:42:49;;;;;;;28.67;17.80;;;1.60;93.20;;;;;;5031570;28;20069;-90
2020/12/11 07:45:29;;;;;;;35.65;18.65;;;1.70;93.20;;;;;;5034001;28;20025;-90
2020/12/11 07:47:55;;;;;;;29.67;17.27;;;1.70;93.10;;;;;;5027270;28;20029;-90
2020/12/11 07:50:22;;;;;;;30.63;17.58;;;1.70;93.10;;;;;;5033859;28;20021;-91
2020/12/11 07:52:50;;;;;;;30.90;17.20;;;1.70;93.10;;;;;;5030300;28;20379;-91
2020/12/11 07:55:16;;;;;;;29.20;16.67;;;1.70;93.10;;;;;;5027739;28;20074;-93
2020/12/11 07:57:49;;;;;;;28.70;17.27;;;1.70;93.00;;;;;;5037251;28;20120;-91
2020/12/11 08:00:15;;;;;;;30.13;17.52;;;1.80;93.00;;;;;;5026579;28;20018;-91
2020/12/11 08:02:40;;;;;;;33.88;17.90;;;1.80;93.00;;;;;;5033808;28;20032;-91
2020/12/11 08:05:07;;;;;;;28.98;16.98;;;1.80;92.90;;;;;;5034333;28;20033;-91
2020/12/11 08:07:32;;;;;;;27.90;16.48;;;1.80;93.20;;;;;;5045937;28;20029;-91
2020/12/11 08:10:13;;;;;;;33.17;17.40;;;1.90;92.90;;;;;;5028299;28;20393;-91
2020/12/11 08:12:39;;;;;;;25.15;15.07;;;1.90;92.80;;;;;;5034666;28;20040;-92
2020/12/11 08:15:06;;;;;;;27.20;16.95;;;1.90;92.80;;;;;;5031078;28;20017;-92
2020/12/11 08:17:32;;;;;;;29.10;16.83;;;1.90;92.70;;;;;;5034638;28;20079;-91
2020/12/11 08:20:05;;;;;;;25.67;15.75;;;2.00;92.70;;;;;;5031492;28;20669;-91
2020/12/11 08:22:36;;;;;;;26.45;16.13;;;2.00;92.70;;;;;;5030412;28;20033;-91
2020/12/11 08:25:22;;;;;;;27.70;15.98;;;2.00;92.60;;;;;;5027860;28;20080;-92
2020/12/11 08:27:48;;;;;;;28.30;15.65;;;2.10;92.60;;;;;;5033547;28;20080;-91
2020/12/11 08:30:15;;;;;;;25.95;16.42;;;2.10;92.70;;;;;;5033495;28;20030;-91
2020/12/11 08:32:42;;;;;;;28.42;17.20;;;2.10;92.70;;;;;;5034493;28;20048;-91
2020/12/11 08:35:21;;;;;;;29.13;16.88;;;2.10;92.70;;;;;;5025782;28;20057;-90
2020/12/11 08:37:55;;;;;;;28.75;16.73;;;2.10;92.70;;;;;;5027406;28;20040;-90
2020/12/11 08:40:21;;;;;;;29.75;18.30;;;2.20;92.70;;;;;;5031984;28;20049;-92
2020/12/11 08:43:47;;;;;;;27.35;16.52;;;2.20;92.70;;;;;;5033782;28;20032;-92
2020/12/11 08:49:02;;;;;;;27.50;16.17;;;2.20;92.80;;;;;;5033644;28;20035;-90
2020/12/11 08:51:29;;;;;;;29.30;17.23;;;2.20;92.80;;;;;;5031265;28;20115;-92
2020/12/11 08:53:56;;;;;;;28.73;16.92;;;2.20;92.80;;;;;;5020653;28;20026;-91
2020/12/11 08:56:22;;;;;;;30.55;17.40;;;2.20;92.80;;;;;;5015027;28;20052;-90
2020/12/11 08:58:47;;;;;;;35.97;18.77;;;2.20;92.80;;;;;;5014954;28;20029;-92
2020/12/11 09:01:13;;;;;;;27.10;17.13;;;2.20;92.80;;;;;;5031775;28;20053;-91
2020/12/11 09:03:38;;;;;;;29.63;17.35;;;2.20;92.80;;;;;;5034095;28;20473;-91
2020/12/11 09:06:04;;;;;;;31.00;18.50;;;2.30;92.80;;;;;;5034629;28;20022;-90
2020/12/11 09:08:29;;;;;;;29.85;18.20;;;2.20;92.80;;;;;;5034200;28;20026;-91
2020/12/11 09:10:55;;;;;;;31.38;18.13;;;2.30;92.90;;;;;;5028976;28;20113;-90
2020/12/11 09:13:20;;;;;;;29.02;17.23;;;2.30;92.90;;;;;;5020718;28;20034;-90
2020/12/11 09:15:46;;;;;;;29.92;16.95;;;2.30;92.90;;;;;;5042232;28;20502;-90
2020/12/11 09:18:11;;;;;;;26.77;16.30;;;2.30;92.90;;;;;;5033210;28;20045;-90
2020/12/11 09:20:37;;;;;;;26.67;15.93;;;2.30;92.90;;;;;;5032409;28;20493;-90
2020/12/11 09:23:02;;;;;;;27.25;16.92;;;2.30;92.80;;;;;;5024371;28;20022;-90
2020/12/11 09:25:28;;;;;;;30.30;17.63;;;2.40;93.10;;;;;;5027128;28;20045;-91
2020/12/11 09:27:54;;;;;;;26.00;15.95;;;2.40;92.80;;;;;;5033389;28;20486;-91
2020/12/11 09:30:32;;;;;;;28.73;16.38;;;2.40;92.80;;;;;;5033802;28;20021;-91
2020/12/11 09:35:55;;;;;;;27.42;16.73;;;2.50;92.70;;;;;;5033319;28;20076;-90
2020/12/11 09:38:20;;;;;;;28.50;16.65;;;2.60;92.70;;;;;;5045626;28;20064;-90
2020/12/11 09:40:56;;;;;;;29.67;16.90;;;2.60;92.70;;;;;;5031823;28;20022;-89
2020/12/11 09:43:43;;;;;;;29.60;16.95;;;2.60;92.60;;;;;;5030076;28;20030;-92
2020/12/11 09:46:27;;;;;;;26.33;16.55;;;2.70;92.60;;;;;;5026328;28;20029;-91
2020/12/11 09:48:58;;;;;;;26.23;16.33;;;2.70;92.50;;;;;;5033192;28;20030;-90
2020/12/11 09:54:11;;;;;;;27.90;17.58;;;2.80;92.50;;;;;;5030869;28;20060;-90
2020/12/11 09:56:37;;;;;;;24.33;14.73;;;2.80;92.40;;;;;;5031834;28;20025;-90
2020/12/11 09:59:50;;;;;;;25.08;15.75;;;2.90;92.40;;;;;;5033192;28;20032;-90
2020/12/11 10:04:20;;;;;;;26.52;16.15;;;3.00;92.30;;;;;;5026143;28;20087;-90
2020/12/11 10:06:46;;;;;;;27.42;16.25;;;3.10;92.30;;;;;;5024557;28;20108;-91
2020/12/11 10:09:11;;;;;;;26.55;16.70;;;3.10;92.30;;;;;;5033767;28;20052;-89
2020/12/11 10:11:37;;;;;;;23.38;16.08;;;3.10;92.20;;;;;;5049926;28;20025;-90
2020/12/11 10:14:21;;;;;;;25.23;15.57;;;3.20;92.10;;;;;;5021437;28;20029;-89
2020/12/11 10:16:51;;;;;;;23.70;14.90;;;3.30;92.20;;;;;;5025693;28;20041;-89
2020/12/11 10:19:16;;;;;;;25.90;15.20;;;3.30;92.10;;;;;;5032422;28;20026;-88
2020/12/11 10:21:46;;;;;;;25.95;16.05;;;3.30;92.10;;;;;;5032777;28;20032;-88
2020/12/11 10:24:11;;;;;;;24.88;14.85;;;3.40;92.00;;;;;;5022242;28;20022;-89
2020/12/11 10:26:40;;;;;;;24.30;15.32;;;3.50;92.10;;;;;;5026694;28;20108;-89
2020/12/11 10:29:05;;;;;;;26.63;16.38;;;3.50;91.90;;;;;;5025558;28;20116;-89
2020/12/11 10:31:31;;;;;;;24.95;15.73;;;3.50;91.90;;;;;;5028385;28;20124;-90
2020/12/11 10:33:57;;;;;;;24.42;15.50;;;3.60;91.90;;;;;;5027331;28;20041;-91
2020/12/11 10:36:33;;;;;;;24.38;15.73;;;3.60;91.90;;;;;;5032509;28;20393;-91
2020/12/11 10:38:59;;;;;;;23.30;15.43;;;3.60;91.80;;;;;;5029272;28;20034;-90
2020/12/11 10:41:25;;;;;;;28.13;15.65;;;3.60;91.80;;;;;;5034906;28;20151;-89
2020/12/11 10:43:51;;;;;;;28.58;17.05;;;3.60;91.90;;;;;;5032805;28;20054;-90
2020/12/11 10:46:17;;;;;;;27.35;16.55;;;3.70;91.90;;;;;;5035430;28;20433;-91
2020/12/11 10:48:43;;;;;;;30.67;16.50;;;3.70;91.90;;;;;;5029503;28;20025;-92
2020/12/11 10:51:11;;;;;;;25.80;16.40;;;3.80;91.90;;;;;;5034762;28;20021;-92
2020/12/11 10:53:36;;;;;;;25.45;15.80;;;3.80;91.80;;;;;;5030824;28;20028;-92
2020/12/11 10:56:06;;;;;;;24.65;15.60;;;3.70;91.90;;;;;;5031821;28;20116;-93
2020/12/11 10:58:33;;;;;;;26.38;16.83;;;3.70;91.90;;;;;;5034192;28;20057;-91
2020/12/11 11:00:59;;;;;;;29.52;17.67;;;3.80;92.00;;;;;;5029582;28;20104;-91
2020/12/11 11:03:27;;;;;;;27.90;17.75;;;3.80;92.00;;;;;;5034932;28;20022;-92
2020/12/11 11:05:54;;;;;;;26.42;16.35;;;3.80;92.00;;;;;;5033072;28;20017;-91
2020/12/11 11:08:20;;;;;;;26.67;16.30;;;3.80;92.10;;;;;;5029952;28;20078;-92
2020/12/11 11:10:49;;;;;;;32.03;17.73;;;3.80;92.10;;;;;;5035073;28;20029;-92
2020/12/11 11:15:53;;;;;;;31.27;18.73;;;3.80;92.10;;;;;;5031673;28;20026;-91
2020/12/11 11:18:43;;;;;;;31.73;18.13;;;3.70;92.20;;;;;;5035629;28;20125;-92
2020/12/11 11:21:25;;;;;;;31.55;18.92;;;3.60;92.20;;;;;;5036933;28;20108;-92
2020/12/11 11:24:10;;;;;;;31.98;18.67;;;3.50;92.40;;;;;;5039679;28;20025;-90
2020/12/11 11:26:44;;;;;;;34.42;19.73;;;3.50;92.50;;;;;;5052049;28;20701;-91
2020/12/11 11:29:10;;;;;;;33.65;18.17;;;3.40;92.70;;;;;;5034473;28;20092;-89
2020/12/11 11:31:35;;;;;;;39.30;21.48;;;3.40;92.80;;;;;;5035628;28;20025;-90
2020/12/11 11:34:01;;;;;;;31.98;18.00;;;3.40;92.90;;;;;;5034898;28;20452;-90
2020/12/11 11:36:28;;;;;;;37.13;20.92;;;3.40;93.00;;;;;;5033447;28;20061;-90
2020/12/11 11:38:53;;;;;;;37.10;20.17;;;3.30;93.10;;;;;;5032511;28;20022;-90
2020/12/11 11:41:44;;;;;;;31.38;18.77;;;3.40;93.20;;;;;;5032991;28;20087;-90
2020/12/11 11:44:34;;;;;;;37.28;20.48;;;3.40;93.30;;;;;;5035315;28;20076;-90
2020/12/11 11:47:00;;;;;;;35.90;20.25;;;3.40;93.30;;;;;;5018606;28;20036;-91
2020/12/11 11:49:41;;;;;;;40.22;22.00;;;3.40;93.40;;;;;;5033322;28;20021;-91
2020/12/11 11:52:31;;;;;;;39.08;22.20;;;3.40;93.50;;;;;;5035157;28;20025;-91
2020/12/11 11:54:57;;;;;;;38.38;21.65;;;3.40;93.50;;;;;;5031980;28;20545;-91
2020/12/11 11:57:22;;;;;;;38.22;21.50;;;3.40;93.60;;;;;;5019348;28;20129;-91
2020/12/11 11:59:48;;;;;;;39.13;20.90;;;3.50;93.60;;;;;;5029219;28;20033;-89
2020/12/11 12:02:14;;;;;;;37.72;19.77;;;3.50;93.70;;;;;;5034408;28;20026;-91
2020/12/11 12:04:42;;;;;;;35.55;20.58;;;3.50;93.70;;;;;;5041920;28;20032;-90
2020/12/11 12:07:08;;;;;;;39.00;21.20;;;3.60;93.70;;;;;;5032436;28;20030;-90
2020/12/11 12:09:33;;;;;;;40.92;21.05;;;3.60;93.80;;;;;;5028462;28;20018;-90
2020/12/11 12:12:00;;;;;;;32.92;19.73;;;3.60;93.80;;;;;;5033904;28;20036;-91
2020/12/11 12:14:25;;;;;;;41.60;22.50;;;3.60;93.90;;;;;;5035856;28;20501;-91
2020/12/11 12:16:54;;;;;;;35.25;20.55;;;3.70;94.00;;;;;;5035404;28;20029;-91
2020/12/11 12:19:30;;;;;;;31.13;18.63;;;3.70;94.00;;;;;;5034487;28;20451;-92
2020/12/11 12:29:39;;;;;;;31.48;19.05;;;3.90;93.90;;;;;;5027642;28;20163;-89
2020/12/11 12:32:14;;;;;;;30.77;19.13;;;3.90;93.90;;;;;;5034979;28;20026;-90
2020/12/11 12:44:41;;;;;;;30.88;17.17;;;3.90;94.00;;;;;;5042872;28;20046;-90
2020/12/11 12:47:07;;;;;;;32.60;17.52;;;3.90;94.00;;;;;;5035093;28;20040;-91
2020/12/11 12:49:32;;;;;;;26.60;17.33;;;4.00;94.00;;;;;;5034499;28;20029;-91
2020/12/11 12:51:58;;;;;;;25.35;16.60;;;4.00;94.00;;;;;;5034398;28;20112;-91
2020/12/11 12:54:25;;;;;;;25.30;16.42;;;4.10;94.00;;;;;;5035405;28;20132;-91
2020/12/11 12:57:12;;;;;;;29.98;17.55;;;4.10;94.00;;;;;;5034786;28;20080;-90
2020/12/11 13:05:08;;;;;;;24.42;14.77;;;4.30;93.90;;;;;;5027076;28;20061;-90
2020/12/11 13:07:35;;;;;;;25.77;15.15;;;4.30;93.80;;;;;;5031498;28;20030;-91
2020/12/11 13:10:01;;;;;;;24.17;14.95;;;4.30;93.80;;;;;;5034182;28;20057;-90
2020/12/11 13:12:27;;;;;;;22.15;13.63;;;4.40;93.80;;;;;;5034270;28;20480;-90
2020/12/11 13:14:52;;;;;;;24.95;15.07;;;4.40;93.80;;;;;;5033913;28;20029;-91
2020/12/11 13:17:18;;;;;;;24.17;14.07;;;4.40;93.80;;;;;;5022858;28;20070;-91
2020/12/11 13:19:44;;;;;;;21.80;13.55;;;4.40;93.80;;;;;;5034225;28;20040;-91